Time,TemperatureF,DewpointF,PressureIn,WindDirection,WindDirectionDegrees,WindSpeedMPH,WindSpeedGustMPH,Humidity,HourlyPrecipIn,Conditions,Clouds,dailyrainin,SoftwareType,DateUTC
2013-05-16 00:01:00,49.9,48.5,29.71,ESE,117,0.0,0.0,95,0.00,,,0.00,WUHU216DAVISVP2,2013-05-16 04:01:00,
2013-05-16 00:06:00,49.8,48.4,29.71,ESE,117,1.0,1.0,95,0.00,,,0.00,WUHU216DAVISVP2,2013-05-16 04:06:00,
2013-05-16 00:11:00,49.5,48.1,29.71,West,262,3.0,3.0,95,0.00,,,0.00,WUHU216DAVISVP2,2013-05-16 04:11:00,
2013-05-16 00:16:00,49.7,48.6,29.72,NW,311,1.5,3.0,96,0.00,,,0.00,WUHU216DAVISVP2,2013-05-16 04:16:00,
2013-05-16 00:21:00,50.0,48.9,29.72,SE,138,1.9,3.0,96,0.00,,,0.00,WUHU216DAVISVP2,2013-05-16 04:21:00,
2013-05-16 00:26:00,50.5,49.4,29.72,SSE,148,1.2,3.0,96,0.00,,,0.00,WUHU216DAVISVP2,2013-05-16 04:26:00,
2013-05-16 00:31:00,50.8,49.7,29.72,NE,46,1.3,3.0,96,0.00,,,0.00,WUHU216DAVISVP2,2013-05-16 04:31:00,
2013-05-16 00:36:00,51.2,50.1,29.72,ESE,122,1.3,3.0,96,0.00,,,0.00,WUHU216DAVISVP2,2013-05-16 04:36:00,
2013-05-16 00:41:00,51.4,50.3,29.72,ESE,111,1.2,2.0,96,0.00,,,0.00,WUHU216DAVISVP2,2013-05-16 04:41:00,
2013-05-16 00:46:00,51.8,50.4,29.72,South,182,1.0,2.0,95,0.00,,,0.00,WUHU216DAVISVP2,2013-05-16 04:46:00,
2013-05-16 00:51:00,51.9,50.2,29.72,SSW,195,1.0,2.0,94,0.00,,,0.00,WUHU216DAVISVP2,2013-05-16 04:51:00,
2013-05-16 00:56:00,52.1,49.8,29.72,SSW,195,1.0,2.0,92,0.00,,,0.00,WUHU216DAVISVP2,2013-05-16 04:56:00,
2013-05-16 01:01:00,52.1,49.5,29.72,NNW,338,1.3,2.0,91,0.00,,,0.00,WUHU216DAVISVP2,2013-05-16 05:01:00,
2013-05-16 01:06:00,52.1,49.2,29.72,SW,235,0.0,2.0,90,0.00,,,0.00,WUHU216DAVISVP2,2013-05-16 05:06:00,
2013-05-16 01:11:00,51.9,49.0,29.72,SW,236,0.0,2.0,90,0.00,,,0.00,WUHU216DAVISVP2,2013-05-16 05:11:00,
2013-05-16 01:16:00,51.8,48.9,29.72,SW,236,0.0,2.0,90,0.00,,,0.00,WUHU216DAVISVP2,2013-05-16 05:16:00,
2013-05-16 01:21:00,51.7,48.8,29.72,SW,235,1.0,1.0,90,0.00,,,0.00,WUHU216DAVISVP2,2013-05-16 05:21:00,
2013-05-16 01:26:00,51.4,48.8,29.72,SW,235,0.0,1.0,91,0.00,,,0.00,WUHU216DAVISVP2,2013-05-16 05:26:00,
2013-05-16 01:31:00,51.2,48.6,29.72,SW,235,0.0,1.0,91,0.00,,,0.00,WUHU216DAVISVP2,2013-05-16 05:31:00,
2013-05-16 01:36:00,51.0,48.7,29.71,SW,235,0.0,1.0,92,0.00,,,0.00,WUHU216DAVISVP2,2013-05-16 05:36:00,
2013-05-16 01:41:00,50.9,48.6,29.71,SW,235,0.0,0.0,92,0.00,,,0.00,WUHU216DAVISVP2,2013-05-16 05:41:00,
2013-05-16 01:46:00,50.8,48.5,29.71,SW,236,0.0,0.0,92,0.00,,,0.00,WUHU216DAVISVP2,2013-05-16 05:46:00,
2013-05-16 01:51:00,50.7,48.4,29.71,SW,236,0.0,0.0,92,0.00,,,0.00,WUHU216DAVISVP2,2013-05-16 05:51:00,
2013-05-16 01:56:00,50.5,48.5,29.71,WSW,240,0.0,0.0,93,0.00,,,0.00,WUHU216DAVISVP2,2013-05-16 05:56:00,
2013-05-16 02:01:00,50.3,48.3,29.71,West,276,1.7,3.0,93,0.00,,,0.00,WUHU216DAVISVP2,2013-05-16 06:01:00,
2013-05-16 02:06:00,50.2,48.2,29.72,WSW,248,1.0,3.0,93,0.00,,,0.00,WUHU216DAVISVP2,2013-05-16 06:06:00,
2013-05-16 02:11:00,50.1,48.1,29.72,WSW,247,1.0,3.0,93,0.00,,,0.00,WUHU216DAVISVP2,2013-05-16 06:11:00,
2013-05-16 02:16:00,50.1,48.1,29.72,WSW,248,1.0,3.0,93,0.00,,,0.00,WUHU216DAVISVP2,2013-05-16 06:16:00,
2013-05-16 02:21:00,50.0,48.0,29.72,WSW,247,0.0,2.0,93,0.00,,,0.00,WUHU216DAVISVP2,2013-05-16 06:21:00,
2013-05-16 02:26:00,49.9,47.9,29.72,WSW,248,0.0,1.0,93,0.00,,,0.00,WUHU216DAVISVP2,2013-05-16 06:26:00,
2013-05-16 02:31:00,49.7,47.7,29.72,WSW,247,0.0,1.0,93,0.00,,,0.00,WUHU216DAVISVP2,2013-05-16 06:31:00,
2013-05-16 02:36:00,49.6,47.9,29.71,WSW,248,0.0,0.0,94,0.00,,,0.00,WUHU216DAVISVP2,2013-05-16 06:36:00,
2013-05-16 02:41:00,49.5,47.8,29.72,WSW,247,0.0,0.0,94,0.00,,,0.00,WUHU216DAVISVP2,2013-05-16 06:41:00,
2013-05-16 02:46:00,49.3,47.6,29.71,WSW,247,0.0,1.0,94,0.00,,,0.00,WUHU216DAVISVP2,2013-05-16 06:46:00,
2013-05-16 02:51:00,49.2,47.5,29.71,WSW,247,0.0,1.0,94,0.00,,,0.00,WUHU216DAVISVP2,2013-05-16 06:51:00,
2013-05-16 02:56:00,49.0,47.3,29.71,WSW,248,0.0,1.0,94,0.00,,,0.00,WUHU216DAVISVP2,2013-05-16 06:56:00,
2013-05-16 03:01:00,48.9,47.2,29.71,WSW,248,0.0,0.0,94,0.00,,,0.00,WUHU216DAVISVP2,2013-05-16 07:01:00,
2013-05-16 03:06:00,48.6,46.9,29.71,WSW,247,0.0,0.0,94,0.00,,,0.00,WUHU216DAVISVP2,2013-05-16 07:06:00,
2013-05-16 03:11:00,48.4,46.7,29.71,WSW,248,0.0,0.0,94,0.00,,,0.00,WUHU216DAVISVP2,2013-05-16 07:11:00,
2013-05-16 03:16:00,48.1,46.4,29.71,WSW,248,0.0,0.0,94,0.00,,,0.00,WUHU216DAVISVP2,2013-05-16 07:16:00,
2013-05-16 03:21:00,47.8,46.4,29.71,WSW,247,0.0,0.0,95,0.00,,,0.00,WUHU216DAVISVP2,2013-05-16 07:21:00,
2013-05-16 03:26:00,47.5,46.1,29.71,NW,319,0.0,0.0,95,0.00,,,0.00,WUHU216DAVISVP2,2013-05-16 07:26:00,
2013-05-16 03:31:00,47.1,45.7,29.71,NW,319,0.0,0.0,95,0.00,,,0.00,WUHU216DAVISVP2,2013-05-16 07:31:00,
2013-05-16 03:36:00,46.9,45.5,29.71,SSE,158,0.0,0.0,95,0.00,,,0.00,WUHU216DAVISVP2,2013-05-16 07:36:00,
2013-05-16 03:41:00,46.7,45.3,29.71,SSE,156,0.0,0.0,95,0.00,,,0.00,WUHU216DAVISVP2,2013-05-16 07:41:00,
2013-05-16 03:46:00,46.5,45.1,29.71,WSW,240,0.0,0.0,95,0.00,,,0.00,WUHU216DAVISVP2,2013-05-16 07:46:00,
2013-05-16 03:51:00,46.1,44.7,29.71,West,267,1.0,2.0,95,0.00,,,0.00,WUHU216DAVISVP2,2013-05-16 07:51:00,
2013-05-16 03:56:00,45.9,44.8,29.71,West,267,1.0,2.0,96,0.00,,,0.00,WUHU216DAVISVP2,2013-05-16 07:56:00,
2013-05-16 04:01:00,45.6,44.2,29.71,SE,129,0.0,2.0,95,0.00,,,0.00,WUHU216DAVISVP2,2013-05-16 08:01:00,
2013-05-16 04:06:00,45.3,44.2,29.71,SSE,150,0.0,2.0,96,0.00,,,0.00,WUHU216DAVISVP2,2013-05-16 08:06:00,
2013-05-16 04:11:00,45.1,44.0,29.70,SE,127,0.0,1.0,96,0.00,,,0.00,WUHU216DAVISVP2,2013-05-16 08:11:00,
2013-05-16 04:16:00,44.9,43.8,29.71,NW,309,0.0,2.0,96,0.00,,,0.00,WUHU216DAVISVP2,2013-05-16 08:16:00,
2013-05-16 04:21:00,44.7,43.6,29.71,NW,309,0.0,2.0,96,0.00,,,0.00,WUHU216DAVISVP2,2013-05-16 08:21:00,
2013-05-16 04:26:00,44.4,43.3,29.71,NW,309,0.0,2.0,96,0.00,,,0.00,WUHU216DAVISVP2,2013-05-16 08:26:00,
2013-05-16 04:31:00,44.1,43.0,29.71,NW,309,0.0,2.0,96,0.00,,,0.00,WUHU216DAVISVP2,2013-05-16 08:31:00,
2013-05-16 04:36:00,43.9,42.8,29.70,NW,309,0.0,0.0,96,0.00,,,0.00,WUHU216DAVISVP2,2013-05-16 08:36:00,
2013-05-16 04:41:00,43.9,42.8,29.70,East,84,1.0,1.0,96,0.00,,,0.00,WUHU216DAVISVP2,2013-05-16 08:41:00,
2013-05-16 04:46:00,43.7,42.6,29.70,East,84,1.0,1.0,96,0.00,,,0.00,WUHU216DAVISVP2,2013-05-16 08:46:00,
2013-05-16 04:51:00,43.4,42.3,29.71,East,84,1.0,1.0,96,0.00,,,0.00,WUHU216DAVISVP2,2013-05-16 08:51:00,
2013-05-16 04:56:00,43.2,42.1,29.71,East,84,1.0,1.0,96,0.00,,,0.00,WUHU216DAVISVP2,2013-05-16 08:56:00,
2013-05-16 05:01:00,43.0,41.9,29.71,East,83,0.0,1.0,96,0.00,,,0.00,WUHU216DAVISVP2,2013-05-16 09:01:00,
2013-05-16 05:06:00,42.9,41.8,29.71,East,83,0.0,1.0,96,0.00,,,0.00,WUHU216DAVISVP2,2013-05-16 09:06:00,
2013-05-16 05:11:00,42.8,42.0,29.71,East,83,0.0,1.0,97,0.00,,,0.00,WUHU216DAVISVP2,2013-05-16 09:11:00,
2013-05-16 05:16:00,43.0,42.2,29.71,ENE,58,1.0,2.0,97,0.00,,,0.00,WUHU216DAVISVP2,2013-05-16 09:16:00,
2013-05-16 05:21:00,43.1,42.3,29.72,ENE,58,0.0,2.0,97,0.00,,,0.00,WUHU216DAVISVP2,2013-05-16 09:21:00,
2013-05-16 05:26:00,43.1,42.3,29.72,ENE,58,0.0,1.0,97,0.00,,,0.00,WUHU216DAVISVP2,2013-05-16 09:26:00,
2013-05-16 05:31:00,43.1,42.3,29.72,ENE,58,0.0,1.0,97,0.00,,,0.00,WUHU216DAVISVP2,2013-05-16 09:31:00,
2013-05-16 05:36:00,43.1,42.3,29.73,ENE,58,1.0,1.0,97,0.00,,,0.00,WUHU216DAVISVP2,2013-05-16 09:36:00,
2013-05-16 05:41:00,43.1,42.3,29.72,ENE,58,1.0,1.0,97,0.00,,,0.00,WUHU216DAVISVP2,2013-05-16 09:41:00,
2013-05-16 05:46:00,43.0,42.2,29.73,ENE,58,0.0,1.0,97,0.00,,,0.00,WUHU216DAVISVP2,2013-05-16 09:46:00,
2013-05-16 05:51:00,43.1,42.3,29.73,ENE,65,1.0,1.0,97,0.00,,,0.00,WUHU216DAVISVP2,2013-05-16 09:51:00,
2013-05-16 05:56:00,43.2,42.4,29.73,NW,312,1.6,2.0,97,0.00,,,0.00,WUHU216DAVISVP2,2013-05-16 09:56:00,
2013-05-16 06:01:00,43.5,42.7,29.73,NNE,30,1.5,2.0,97,0.00,,,0.00,WUHU216DAVISVP2,2013-05-16 10:01:00,
2013-05-16 06:06:00,43.9,43.1,29.73,NNE,30,0.0,2.0,97,0.00,,,0.00,WUHU216DAVISVP2,2013-05-16 10:06:00,
2013-05-16 06:11:00,44.2,43.4,29.74,NNE,30,0.0,2.0,97,0.00,,,0.00,WUHU216DAVISVP2,2013-05-16 10:11:00,
2013-05-16 06:16:00,44.5,43.7,29.74,NNE,30,1.0,2.0,97,0.00,,,0.00,WUHU216DAVISVP2,2013-05-16 10:16:00,
2013-05-16 06:21:00,44.9,44.1,29.74,NNE,26,0.0,2.0,97,0.00,,,0.00,WUHU216DAVISVP2,2013-05-16 10:21:00,
2013-05-16 06:26:00,45.7,44.9,29.74,NNE,25,0.0,1.0,97,0.00,,,0.00,WUHU216DAVISVP2,2013-05-16 10:26:00,
2013-05-16 06:31:00,46.5,45.7,29.74,NNE,27,0.0,1.0,97,0.00,,,0.00,WUHU216DAVISVP2,2013-05-16 10:31:00,
2013-05-16 06:36:00,46.3,45.2,29.74,NNE,26,0.0,0.0,96,0.00,,,0.00,WUHU216DAVISVP2,2013-05-16 10:36:00,
2013-05-16 06:41:00,46.9,45.8,29.75,NNE,26,0.0,0.0,96,0.00,,,0.00,WUHU216DAVISVP2,2013-05-16 10:41:00,
2013-05-16 06:46:00,47.5,46.4,29.74,NNE,27,0.0,0.0,96,0.00,,,0.00,WUHU216DAVISVP2,2013-05-16 10:46:00,
2013-05-16 06:51:00,48.5,47.4,29.74,NNE,26,0.0,0.0,96,0.00,,,0.00,WUHU216DAVISVP2,2013-05-16 10:51:00,
2013-05-16 06:56:00,49.6,48.5,29.75,NNE,26,0.0,0.0,96,0.00,,,0.00,WUHU216DAVISVP2,2013-05-16 10:56:00,
2013-05-16 07:01:00,50.5,49.1,29.75,NNE,25,0.0,0.0,95,0.00,,,0.00,WUHU216DAVISVP2,2013-05-16 11:01:00,
2013-05-16 07:06:00,51.0,49.3,29.75,NNE,27,0.0,0.0,94,0.00,,,0.00,WUHU216DAVISVP2,2013-05-16 11:06:00,
2013-05-16 07:11:00,51.8,49.5,29.75,NNE,25,0.0,0.0,92,0.00,,,0.00,WUHU216DAVISVP2,2013-05-16 11:11:00,
2013-05-16 07:16:00,52.3,49.7,29.75,NNE,25,0.0,0.0,91,0.00,,,0.00,WUHU216DAVISVP2,2013-05-16 11:16:00,
2013-05-16 07:21:00,53.6,51.0,29.75,NNE,27,0.0,0.0,91,0.00,,,0.00,WUHU216DAVISVP2,2013-05-16 11:21:00,
2013-05-16 07:26:00,54.6,51.7,29.75,NNE,28,0.0,0.0,90,0.00,,,0.00,WUHU216DAVISVP2,2013-05-16 11:26:00,
2013-05-16 07:31:00,56.6,52.1,29.75,NNE,29,0.0,0.0,85,0.00,,,0.00,WUHU216DAVISVP2,2013-05-16 11:31:00,
2013-05-16 07:36:00,57.4,52.3,29.75,NNE,29,0.0,0.0,83,0.00,,,0.00,WUHU216DAVISVP2,2013-05-16 11:36:00,
2013-05-16 07:41:00,57.6,52.2,29.76,NNE,28,0.0,0.0,82,0.00,,,0.00,WUHU216DAVISVP2,2013-05-16 11:41:00,
2013-05-16 07:46:00,58.1,52.3,29.76,NE,41,0.0,0.0,81,0.00,,,0.00,WUHU216DAVISVP2,2013-05-16 11:46:00,
2013-05-16 07:51:00,58.9,51.8,29.76,ESE,115,0.0,0.0,77,0.00,,,0.00,WUHU216DAVISVP2,2013-05-16 11:51:00,
2013-05-16 07:56:00,59.9,52.1,29.76,East,100,0.0,0.0,75,0.00,,,0.00,WUHU216DAVISVP2,2013-05-16 11:56:00,
2013-05-16 08:01:00,60.5,51.9,29.76,ESE,108,0.0,0.0,73,0.00,,,0.00,WUHU216DAVISVP2,2013-05-16 12:01:00,
2013-05-16 08:06:00,61.4,52.0,29.76,ESE,108,1.0,1.0,71,0.00,,,0.00,WUHU216DAVISVP2,2013-05-16 12:06:00,
2013-05-16 08:11:00,62.0,52.2,29.76,SE,128,0.0,2.0,70,0.00,,,0.00,WUHU216DAVISVP2,2013-05-16 12:11:00,
2013-05-16 08:16:00,62.5,51.9,29.76,NNE,12,0.0,2.0,68,0.00,,,0.00,WUHU216DAVISVP2,2013-05-16 12:16:00,
2013-05-16 08:21:00,63.2,51.4,29.76,East,92,2.0,3.0,65,0.00,,,0.00,WUHU216DAVISVP2,2013-05-16 12:21:00,
2013-05-16 08:26:00,64.2,51.5,29.76,ESE,120,1.6,3.0,63,0.00,,,0.00,WUHU216DAVISVP2,2013-05-16 12:26:00,
2013-05-16 08:31:00,65.4,50.8,29.76,ESE,119,1.1,3.0,59,0.00,,,0.00,WUHU216DAVISVP2,2013-05-16 12:31:00,
2013-05-16 08:36:00,66.1,50.1,29.76,ESE,117,2.0,3.0,56,0.00,,,0.00,WUHU216DAVISVP2,2013-05-16 12:36:00,
2013-05-16 08:41:00,66.7,50.1,29.76,SE,142,0.0,2.0,55,0.00,,,0.00,WUHU216DAVISVP2,2013-05-16 12:41:00,
2013-05-16 08:46:00,67.3,49.7,29.76,East,93,1.0,2.0,53,0.00,,,0.00,WUHU216DAVISVP2,2013-05-16 12:46:00,
2013-05-16 08:51:00,67.9,44.5,29.76,WNW,298,5.0,11.0,43,0.00,,,0.00,WUHU216DAVISVP2,2013-05-16 12:51:00,
2013-05-16 08:56:00,67.9,42.6,29.76,West,280,3.9,11.0,40,0.00,,,0.00,WUHU216DAVISVP2,2013-05-16 12:56:00,
2013-05-16 09:01:00,68.1,42.1,29.76,West,274,5.8,13.0,39,0.00,,,0.00,WUHU216DAVISVP2,2013-05-16 13:01:00,
2013-05-16 09:06:00,68.4,41.6,29.76,NNW,328,4.2,13.0,38,0.00,,,0.00,WUHU216DAVISVP2,2013-05-16 13:06:00,
2013-05-16 09:11:00,68.7,40.7,29.76,North,355,4.2,13.0,36,0.00,,,0.00,WUHU216DAVISVP2,2013-05-16 13:11:00,
2013-05-16 09:16:00,69.2,43.2,29.76,NW,305,3.0,13.0,39,0.00,,,0.00,WUHU216DAVISVP2,2013-05-16 13:16:00,
2013-05-16 09:21:00,69.6,42.9,29.76,West,276,4.0,11.0,38,0.00,,,0.00,WUHU216DAVISVP2,2013-05-16 13:21:00,
2013-05-16 09:26:00,69.7,41.5,29.76,West,269,5.7,13.0,36,0.00,,,0.00,WUHU216DAVISVP2,2013-05-16 13:26:00,
2013-05-16 09:31:00,69.8,40.7,29.76,WNW,297,7.0,13.0,35,0.00,,,0.00,WUHU216DAVISVP2,2013-05-16 13:31:00,
2013-05-16 09:36:00,69.9,40.8,29.76,NNW,340,7.3,13.0,35,0.00,,,0.00,WUHU216DAVISVP2,2013-05-16 13:36:00,
2013-05-16 09:41:00,70.2,41.1,29.76,NNW,330,8.0,13.0,35,0.00,,,0.00,WUHU216DAVISVP2,2013-05-16 13:41:00,
2013-05-16 09:46:00,70.4,42.7,29.76,NW,326,5.0,13.0,37,0.00,,,0.00,WUHU216DAVISVP2,2013-05-16 13:46:00,
2013-05-16 09:51:00,71.0,42.5,29.76,NW,324,4.0,13.0,36,0.00,,,0.00,WUHU216DAVISVP2,2013-05-16 13:51:00,
2013-05-16 09:56:00,71.1,40.3,29.76,West,277,6.7,13.0,33,0.00,,,0.00,WUHU216DAVISVP2,2013-05-16 13:56:00,
2013-05-16 10:01:00,71.1,41.9,29.76,WNW,301,12.0,13.0,35,0.00,,,0.00,WUHU216DAVISVP2,2013-05-16 14:01:00,
2013-05-16 10:06:00,71.1,40.3,29.76,WNW,297,8.0,15.0,33,0.00,,,0.00,WUHU216DAVISVP2,2013-05-16 14:06:00,
2013-05-16 10:11:00,71.4,42.1,29.76,WSW,257,7.0,15.0,35,0.00,,,0.00,WUHU216DAVISVP2,2013-05-16 14:11:00,
2013-05-16 10:16:00,71.7,41.7,29.76,North,349,4.9,15.0,34,0.00,,,0.00,WUHU216DAVISVP2,2013-05-16 14:16:00,
2013-05-16 10:21:00,72.1,41.4,29.76,NW,307,7.0,13.0,33,0.00,,,0.00,WUHU216DAVISVP2,2013-05-16 14:21:00,
2013-05-16 10:26:00,72.2,42.3,29.76,NW,321,5.0,15.0,34,0.00,,,0.00,WUHU216DAVISVP2,2013-05-16 14:26:00,
2013-05-16 10:31:00,72.9,41.9,29.76,NW,315,6.0,15.0,33,0.00,,,0.00,WUHU216DAVISVP2,2013-05-16 14:31:00,
2013-05-16 10:36:00,72.5,40.8,29.76,NW,318,9.1,16.0,32,0.00,,,0.00,WUHU216DAVISVP2,2013-05-16 14:36:00,
2013-05-16 10:41:00,72.7,42.5,29.75,NW,318,4.0,16.0,34,0.00,,,0.00,WUHU216DAVISVP2,2013-05-16 14:41:00,
2013-05-16 10:46:00,72.5,41.6,29.75,WNW,299,7.9,19.0,33,0.00,,,0.00,WUHU216DAVISVP2,2013-05-16 14:46:00,
2013-05-16 10:51:00,72.6,41.7,29.75,West,278,7.4,19.0,33,0.00,,,0.00,WUHU216DAVISVP2,2013-05-16 14:51:00,
2013-05-16 10:56:00,73.3,42.3,29.75,NW,312,9.0,19.0,33,0.00,,,0.00,WUHU216DAVISVP2,2013-05-16 14:56:00,
2013-05-16 11:01:00,73.2,43.0,29.75,NNW,335,6.0,14.0,34,0.00,,,0.00,WUHU216DAVISVP2,2013-05-16 15:01:00,
2013-05-16 11:06:00,73.1,39.6,29.75,WNW,299,7.6,14.0,30,0.00,,,0.00,WUHU216DAVISVP2,2013-05-16 15:06:00,
2013-05-16 11:11:00,73.5,40.8,29.75,WNW,283,6.0,16.0,31,0.00,,,0.00,WUHU216DAVISVP2,2013-05-16 15:11:00,
2013-05-16 11:16:00,73.6,40.2,29.75,NW,321,7.4,18.0,30,0.00,,,0.00,WUHU216DAVISVP2,2013-05-16 15:16:00,
2013-05-16 11:21:00,73.9,40.3,29.75,West,278,9.0,18.0,30,0.00,,,0.00,WUHU216DAVISVP2,2013-05-16 15:21:00,
2013-05-16 11:26:00,74.1,42.2,29.74,NW,320,4.2,18.0,32,0.00,,,0.00,WUHU216DAVISVP2,2013-05-16 15:26:00,
2013-05-16 11:31:00,74.6,41.8,29.74,NW,322,5.5,17.0,31,0.00,,,0.00,WUHU216DAVISVP2,2013-05-16 15:31:00,
2013-05-16 11:36:00,75.0,43.0,29.74,WNW,303,3.9,13.0,32,0.00,,,0.00,WUHU216DAVISVP2,2013-05-16 15:36:00,
2013-05-16 11:41:00,75.0,43.0,29.74,WNW,300,6.4,15.0,32,0.00,,,0.00,WUHU216DAVISVP2,2013-05-16 15:41:00,
2013-05-16 11:46:00,74.9,40.3,29.73,NNW,337,6.4,16.0,29,0.00,,,0.00,WUHU216DAVISVP2,2013-05-16 15:46:00,
2013-05-16 11:51:00,75.4,42.5,29.73,WNW,300,6.5,16.0,31,0.00,,,0.00,WUHU216DAVISVP2,2013-05-16 15:51:00,
2013-05-16 11:56:00,75.7,42.9,29.73,WNW,303,10.0,17.0,31,0.00,,,0.00,WUHU216DAVISVP2,2013-05-16 15:56:00,
2013-05-16 12:01:00,75.6,40.2,29.74,WNW,291,9.0,20.0,28,0.00,,,0.00,WUHU216DAVISVP2,2013-05-16 16:01:00,
2013-05-16 12:06:00,75.6,40.9,29.72,West,265,5.9,20.0,29,0.00,,,0.00,WUHU216DAVISVP2,2013-05-16 16:06:00,
2013-05-16 12:11:00,75.9,42.9,29.72,West,260,4.9,20.0,31,0.00,,,0.00,WUHU216DAVISVP2,2013-05-16 16:11:00,
2013-05-16 12:16:00,76.4,41.6,29.72,NW,308,7.0,20.0,29,0.00,,,0.00,WUHU216DAVISVP2,2013-05-16 16:16:00,
2013-05-16 12:21:00,77.0,42.2,29.72,WNW,291,5.6,20.0,29,0.00,,,0.00,WUHU216DAVISVP2,2013-05-16 16:21:00,
2013-05-16 12:26:00,76.9,42.9,29.72,North,6,4.0,16.0,30,0.00,,,0.00,WUHU216DAVISVP2,2013-05-16 16:26:00,
2013-05-16 12:31:00,76.9,41.2,29.72,NW,308,9.0,16.0,28,0.00,,,0.00,WUHU216DAVISVP2,2013-05-16 16:31:00,
2013-05-16 12:36:00,77.1,45.0,29.72,WNW,300,5.6,17.0,32,0.00,,,0.00,WUHU216DAVISVP2,2013-05-16 16:36:00,
2013-05-16 12:41:00,77.6,42.8,29.71,NW,324,7.7,17.0,29,0.00,,,0.00,WUHU216DAVISVP2,2013-05-16 16:41:00,
2013-05-16 12:46:00,78.1,43.1,29.72,WNW,301,13.0,16.0,29,0.00,,,0.00,WUHU216DAVISVP2,2013-05-16 16:46:00,
2013-05-16 12:51:00,78.4,43.4,29.71,NNW,347,10.0,16.0,29,0.00,,,0.00,WUHU216DAVISVP2,2013-05-16 16:51:00,
2013-05-16 12:56:00,77.8,42.8,29.71,WNW,284,9.0,14.0,29,0.00,,,0.00,WUHU216DAVISVP2,2013-05-16 16:56:00,
2013-05-16 13:01:00,77.5,41.7,29.71,NW,319,5.6,18.0,28,0.00,,,0.00,WUHU216DAVISVP2,2013-05-16 17:01:00,
2013-05-16 13:06:00,78.0,43.0,29.71,West,262,6.0,18.0,29,0.00,,,0.00,WUHU216DAVISVP2,2013-05-16 17:06:00,
2013-05-16 13:11:00,78.1,43.1,29.71,WNW,295,5.9,18.0,29,0.00,,,0.00,WUHU216DAVISVP2,2013-05-16 17:11:00,
2013-05-16 13:16:00,78.0,42.2,29.71,NW,305,9.4,18.0,28,0.00,,,0.00,WUHU216DAVISVP2,2013-05-16 17:16:00,
2013-05-16 13:21:00,77.4,41.6,29.71,North,349,7.0,17.0,28,0.00,,,0.00,WUHU216DAVISVP2,2013-05-16 17:21:00,
2013-05-16 13:26:00,77.4,43.4,29.71,South,190,5.0,17.0,30,0.00,,,0.00,WUHU216DAVISVP2,2013-05-16 17:26:00,
2013-05-16 13:31:00,77.9,42.9,29.70,WNW,294,7.2,17.0,29,0.00,,,0.00,WUHU216DAVISVP2,2013-05-16 17:31:00,
2013-05-16 13:36:00,78.5,41.6,29.70,NW,316,7.0,16.0,27,0.00,,,0.00,WUHU216DAVISVP2,2013-05-16 17:36:00,
2013-05-16 13:41:00,78.4,41.5,29.70,West,267,5.2,15.0,27,0.00,,,0.00,WUHU216DAVISVP2,2013-05-16 17:41:00,
2013-05-16 13:46:00,78.5,42.7,29.71,WNW,286,10.3,21.0,28,0.00,,,0.00,WUHU216DAVISVP2,2013-05-16 17:46:00,
2013-05-16 13:51:00,78.7,41.8,29.71,WNW,301,6.6,22.0,27,0.00,,,0.00,WUHU216DAVISVP2,2013-05-16 17:51:00,
2013-05-16 13:56:00,78.7,40.8,29.70,NW,308,7.3,22.0,26,0.00,,,0.00,WUHU216DAVISVP2,2013-05-16 17:56:00,
2013-05-16 14:01:00,78.6,39.7,29.71,NW,307,8.2,22.0,25,0.00,,,0.00,WUHU216DAVISVP2,2013-05-16 18:01:00,
2013-05-16 14:06:00,78.4,39.6,29.70,NW,317,8.3,21.0,25,0.00,,,0.00,WUHU216DAVISVP2,2013-05-16 18:06:00,
2013-05-16 14:11:00,78.4,38.5,29.71,NW,318,10.4,21.0,24,0.00,,,0.00,WUHU216DAVISVP2,2013-05-16 18:11:00,
2013-05-16 14:16:00,79.0,41.2,29.70,WNW,288,14.0,28.0,26,0.00,,,0.00,WUHU216DAVISVP2,2013-05-16 18:16:00,
2013-05-16 14:21:00,78.9,40.0,29.70,NW,306,9.4,28.0,25,0.00,,,0.00,WUHU216DAVISVP2,2013-05-16 18:21:00,
2013-05-16 14:26:00,79.0,40.1,29.70,NW,310,6.7,28.0,25,0.00,,,0.00,WUHU216DAVISVP2,2013-05-16 18:26:00,
2013-05-16 14:31:00,79.6,41.6,29.70,West,274,8.0,28.0,26,0.00,,,0.00,WUHU216DAVISVP2,2013-05-16 18:31:00,
2013-05-16 14:36:00,79.9,40.9,29.70,WNW,297,8.0,19.0,25,0.00,,,0.00,WUHU216DAVISVP2,2013-05-16 18:36:00,
2013-05-16 14:41:00,79.3,40.3,29.70,WNW,289,4.6,19.0,25,0.00,,,0.00,WUHU216DAVISVP2,2013-05-16 18:41:00,
2013-05-16 14:46:00,79.2,39.2,29.70,WNW,287,5.6,18.0,24,0.00,,,0.00,WUHU216DAVISVP2,2013-05-16 18:46:00,
2013-05-16 14:51:00,79.8,40.7,29.70,WNW,293,7.0,17.0,25,0.00,,,0.00,WUHU216DAVISVP2,2013-05-16 18:51:00,
2013-05-16 14:56:00,79.8,41.7,29.70,WNW,299,4.2,17.0,26,0.00,,,0.00,WUHU216DAVISVP2,2013-05-16 18:56:00,
2013-05-16 15:01:00,79.8,39.8,29.70,WNW,302,4.6,17.0,24,0.00,,,0.00,WUHU216DAVISVP2,2013-05-16 19:01:00,
2013-05-16 15:06:00,80.1,42.0,29.70,West,272,9.2,20.0,26,0.00,,,0.00,WUHU216DAVISVP2,2013-05-16 19:06:00,
2013-05-16 15:11:00,80.1,41.0,29.69,NNE,18,11.0,20.0,25,0.00,,,0.00,WUHU216DAVISVP2,2013-05-16 19:11:00,
2013-05-16 15:16:00,80.1,41.0,29.69,NW,305,9.8,19.0,25,0.00,,,0.00,WUHU216DAVISVP2,2013-05-16 19:16:00,
2013-05-16 15:21:00,79.6,39.6,29.69,NW,311,10.3,19.0,24,0.00,,,0.00,WUHU216DAVISVP2,2013-05-16 19:21:00,
2013-05-16 15:26:00,79.7,39.6,29.70,NW,320,8.5,19.0,24,0.00,,,0.00,WUHU216DAVISVP2,2013-05-16 19:26:00,
2013-05-16 15:31:00,80.0,40.9,29.69,NW,309,5.1,19.0,25,0.00,,,0.00,WUHU216DAVISVP2,2013-05-16 19:31:00,
2013-05-16 15:36:00,80.5,41.4,29.69,NNW,335,6.0,19.0,25,0.00,,,0.00,WUHU216DAVISVP2,2013-05-16 19:36:00,
2013-05-16 15:41:00,80.4,40.2,29.69,WNW,299,9.3,18.0,24,0.00,,,0.00,WUHU216DAVISVP2,2013-05-16 19:41:00,
2013-05-16 15:46:00,80.0,40.9,29.69,WNW,289,7.8,18.0,25,0.00,,,0.00,WUHU216DAVISVP2,2013-05-16 19:46:00,
2013-05-16 15:51:00,80.4,42.4,29.69,WNW,291,5.0,18.0,26,0.00,,,0.00,WUHU216DAVISVP2,2013-05-16 19:51:00,
2013-05-16 15:56:00,79.7,39.6,29.69,NW,317,6.3,18.0,24,0.00,,,0.00,WUHU216DAVISVP2,2013-05-16 19:56:00,
2013-05-16 16:01:00,79.8,41.7,29.69,NW,320,6.9,17.0,26,0.00,,,0.00,WUHU216DAVISVP2,2013-05-16 20:01:00,
2013-05-16 16:06:00,79.3,40.3,29.69,WNW,294,5.3,22.0,25,0.00,,,0.00,WUHU216DAVISVP2,2013-05-16 20:06:00,
2013-05-16 16:11:00,79.5,40.6,29.69,NNE,32,7.0,22.0,25,0.00,,,0.00,WUHU216DAVISVP2,2013-05-16 20:11:00,
2013-05-16 16:16:00,79.8,40.7,29.69,NW,320,10.0,21.0,25,0.00,,,0.00,WUHU216DAVISVP2,2013-05-16 20:16:00,
2013-05-16 16:21:00,79.9,43.7,29.69,NW,320,8.4,21.0,28,0.00,,,0.00,WUHU216DAVISVP2,2013-05-16 20:21:00,
2013-05-16 16:26:00,79.9,41.8,29.69,WNW,297,4.3,19.0,26,0.00,,,0.00,WUHU216DAVISVP2,2013-05-16 20:26:00,
2013-05-16 16:31:00,80.1,42.1,29.69,West,267,10.0,19.0,26,0.00,,,0.00,WUHU216DAVISVP2,2013-05-16 20:31:00,
2013-05-16 16:36:00,79.8,41.7,29.68,WSW,253,7.0,19.0,26,0.00,,,0.00,WUHU216DAVISVP2,2013-05-16 20:36:00,
2013-05-16 16:41:00,79.4,41.4,29.68,West,272,8.3,19.0,26,0.00,,,0.00,WUHU216DAVISVP2,2013-05-16 20:41:00,
2013-05-16 16:46:00,79.8,41.7,29.68,NW,315,4.8,19.0,26,0.00,,,0.00,WUHU216DAVISVP2,2013-05-16 20:46:00,
2013-05-16 16:51:00,79.7,40.7,29.68,NW,324,7.7,19.0,25,0.00,,,0.00,WUHU216DAVISVP2,2013-05-16 20:51:00,
2013-05-16 16:56:00,79.5,41.5,29.68,NNW,340,11.0,16.0,26,0.00,,,0.00,WUHU216DAVISVP2,2013-05-16 20:56:00,
2013-05-16 17:01:00,79.4,41.4,29.68,WNW,287,6.0,16.0,26,0.00,,,0.00,WUHU216DAVISVP2,2013-05-16 21:01:00,
2013-05-16 17:06:00,79.9,41.9,29.68,WNW,297,6.0,16.0,26,0.00,,,0.00,WUHU216DAVISVP2,2013-05-16 21:06:00,
2013-05-16 17:11:00,79.9,41.8,29.68,WNW,302,7.2,16.0,26,0.00,,,0.00,WUHU216DAVISVP2,2013-05-16 21:11:00,
2013-05-16 17:16:00,79.9,42.8,29.68,West,271,7.0,15.0,27,0.00,,,0.00,WUHU216DAVISVP2,2013-05-16 21:16:00,
2013-05-16 17:21:00,79.5,40.5,29.68,NW,317,7.4,16.0,25,0.00,,,0.00,WUHU216DAVISVP2,2013-05-16 21:21:00,
2013-05-16 17:26:00,79.3,42.4,29.69,North,8,4.5,16.0,27,0.00,,,0.00,WUHU216DAVISVP2,2013-05-16 21:26:00,
2013-05-16 17:31:00,79.0,41.1,29.68,WNW,286,7.3,16.0,26,0.00,,,0.00,WUHU216DAVISVP2,2013-05-16 21:31:00,
2013-05-16 17:36:00,78.9,41.0,29.69,North,3,8.8,16.0,26,0.00,,,0.00,WUHU216DAVISVP2,2013-05-16 21:36:00,
2013-05-16 17:41:00,78.8,41.9,29.69,North,349,7.5,16.0,27,0.00,,,0.00,WUHU216DAVISVP2,2013-05-16 21:41:00,
2013-05-16 17:46:00,78.8,42.8,29.69,NW,321,7.0,16.0,28,0.00,,,0.00,WUHU216DAVISVP2,2013-05-16 21:46:00,
2013-05-16 17:51:00,78.7,43.8,29.69,NNW,333,8.0,19.0,29,0.00,,,0.00,WUHU216DAVISVP2,2013-05-16 21:51:00,
2013-05-16 17:56:00,78.3,43.4,29.69,North,350,8.0,19.0,29,0.00,,,0.00,WUHU216DAVISVP2,2013-05-16 21:56:00,
2013-05-16 18:01:00,78.4,43.4,29.69,NW,323,4.9,19.0,29,0.00,,,0.00,WUHU216DAVISVP2,2013-05-16 22:01:00,
2013-05-16 18:06:00,78.2,42.3,29.70,NNW,336,7.7,20.0,28,0.00,,,0.00,WUHU216DAVISVP2,2013-05-16 22:06:00,
2013-05-16 18:11:00,78.1,43.1,29.70,NW,317,6.7,20.0,29,0.00,,,0.00,WUHU216DAVISVP2,2013-05-16 22:11:00,
2013-05-16 18:16:00,77.8,41.9,29.70,North,356,9.0,20.0,28,0.00,,,0.00,WUHU216DAVISVP2,2013-05-16 22:16:00,
2013-05-16 18:21:00,77.3,41.5,29.70,WNW,301,10.6,23.0,28,0.00,,,0.00,WUHU216DAVISVP2,2013-05-16 22:21:00,
2013-05-16 18:26:00,77.0,43.2,29.70,NNW,331,6.0,23.0,30,0.00,,,0.00,WUHU216DAVISVP2,2013-05-16 22:26:00,
2013-05-16 18:31:00,76.8,43.0,29.70,WNW,294,17.0,23.0,30,0.00,,,0.00,WUHU216DAVISVP2,2013-05-16 22:31:00,
2013-05-16 18:36:00,76.7,43.6,29.70,NNW,331,4.4,23.0,31,0.00,,,0.00,WUHU216DAVISVP2,2013-05-16 22:36:00,
2013-05-16 18:41:00,76.4,42.5,29.71,NNW,342,7.0,23.0,30,0.00,,,0.00,WUHU216DAVISVP2,2013-05-16 22:41:00,
2013-05-16 18:46:00,76.2,42.3,29.71,NNE,12,12.0,23.0,30,0.00,,,0.00,WUHU216DAVISVP2,2013-05-16 22:46:00,
2013-05-16 18:51:00,76.0,42.2,29.71,NW,307,6.4,20.0,30,0.00,,,0.00,WUHU216DAVISVP2,2013-05-16 22:51:00,
2013-05-16 18:56:00,75.8,42.0,29.71,NW,309,7.1,20.0,30,0.00,,,0.00,WUHU216DAVISVP2,2013-05-16 22:56:00,
2013-05-16 19:01:00,75.6,42.7,29.72,WNW,283,5.0,20.0,31,0.00,,,0.00,WUHU216DAVISVP2,2013-05-16 23:01:00,
2013-05-16 19:06:00,75.3,41.6,29.72,WNW,302,7.3,15.0,30,0.00,,,0.00,WUHU216DAVISVP2,2013-05-16 23:06:00,
2013-05-16 19:11:00,75.0,41.3,29.72,WNW,290,8.0,15.0,30,0.00,,,0.00,WUHU216DAVISVP2,2013-05-16 23:11:00,
2013-05-16 19:16:00,74.7,40.2,29.73,NW,314,10.0,18.0,29,0.00,,,0.00,WUHU216DAVISVP2,2013-05-16 23:16:00,
2013-05-16 19:21:00,74.3,39.8,29.73,NNW,336,8.7,18.0,29,0.00,,,0.00,WUHU216DAVISVP2,2013-05-16 23:21:00,
2013-05-16 19:26:00,74.1,39.6,29.73,NW,322,3.3,20.0,29,0.00,,,0.00,WUHU216DAVISVP2,2013-05-16 23:26:00,
2013-05-16 19:31:00,73.7,39.3,29.74,NE,40,6.0,20.0,29,0.00,,,0.00,WUHU216DAVISVP2,2013-05-16 23:31:00,
2013-05-16 19:36:00,73.2,38.9,29.74,North,360,12.0,20.0,29,0.00,,,0.00,WUHU216DAVISVP2,2013-05-16 23:36:00,
2013-05-16 19:41:00,72.8,39.4,29.74,NNW,334,7.5,17.0,30,0.00,,,0.00,WUHU216DAVISVP2,2013-05-16 23:41:00,
2013-05-16 19:46:00,72.4,39.0,29.75,North,353,6.0,17.0,30,0.00,,,0.00,WUHU216DAVISVP2,2013-05-16 23:46:00,
2013-05-16 19:51:00,72.2,39.7,29.75,NNW,334,7.3,18.0,31,0.00,,,0.00,WUHU216DAVISVP2,2013-05-16 23:51:00,
2013-05-16 19:56:00,71.7,40.1,29.75,NW,307,5.0,18.0,32,0.00,,,0.00,WUHU216DAVISVP2,2013-05-16 23:56:00,
2013-05-16 20:01:00,71.5,39.9,29.76,NW,311,4.1,18.0,32,0.00,,,0.00,WUHU216DAVISVP2,2013-05-17 00:01:00,
2013-05-16 20:06:00,71.2,40.4,29.76,North,359,5.1,17.0,33,0.00,,,0.00,WUHU216DAVISVP2,2013-05-17 00:06:00,
2013-05-16 20:11:00,70.9,40.2,29.76,NW,311,7.0,16.0,33,0.00,,,0.00,WUHU216DAVISVP2,2013-05-17 00:11:00,
2013-05-16 20:16:00,70.9,40.3,29.77,NNW,342,6.0,16.0,33,0.00,,,0.00,WUHU216DAVISVP2,2013-05-17 00:16:00,
2013-05-16 20:21:00,70.5,40.0,29.77,NNW,345,4.9,16.0,33,0.00,,,0.00,WUHU216DAVISVP2,2013-05-17 00:21:00,
2013-05-16 20:26:00,70.3,40.6,29.77,NW,325,5.7,20.0,34,0.00,,,0.00,WUHU216DAVISVP2,2013-05-17 00:26:00,
2013-05-16 20:31:00,70.0,39.4,29.78,WNW,302,7.0,20.0,33,0.00,,,0.00,WUHU216DAVISVP2,2013-05-17 00:31:00,
2013-05-16 20:36:00,69.9,39.3,29.79,WNW,294,5.0,19.0,33,0.00,,,0.00,WUHU216DAVISVP2,2013-05-17 00:36:00,
2013-05-16 20:41:00,69.7,38.3,29.79,NW,318,5.0,19.0,32,0.00,,,0.00,WUHU216DAVISVP2,2013-05-17 00:41:00,
2013-05-16 20:46:00,69.7,38.3,29.79,NNW,345,3.2,16.0,32,0.00,,,0.00,WUHU216DAVISVP2,2013-05-17 00:46:00,
2013-05-16 20:51:00,69.7,37.5,29.80,WNW,300,4.3,19.0,31,0.00,,,0.00,WUHU216DAVISVP2,2013-05-17 00:51:00,
2013-05-16 20:56:00,69.3,38.0,29.80,NW,316,2.2,19.0,32,0.00,,,0.00,WUHU216DAVISVP2,2013-05-17 00:56:00,
2013-05-16 21:01:00,68.8,37.5,29.80,NW,313,2.2,19.0,32,0.00,,,0.00,WUHU216DAVISVP2,2013-05-17 01:01:00,
2013-05-16 21:06:00,68.5,38.1,29.80,WNW,303,3.0,19.0,33,0.00,,,0.00,WUHU216DAVISVP2,2013-05-17 01:06:00,
2013-05-16 21:11:00,68.3,37.1,29.81,NW,319,11.0,14.0,32,0.00,,,0.00,WUHU216DAVISVP2,2013-05-17 01:11:00,
2013-05-16 21:16:00,68.1,37.7,29.81,NW,308,2.5,14.0,33,0.00,,,0.00,WUHU216DAVISVP2,2013-05-17 01:16:00,
2013-05-16 21:21:00,67.7,37.4,29.82,NW,319,3.0,14.0,33,0.00,,,0.00,WUHU216DAVISVP2,2013-05-17 01:21:00,
2013-05-16 21:26:00,67.5,37.2,29.82,NW,311,3.3,14.0,33,0.00,,,0.00,WUHU216DAVISVP2,2013-05-17 01:26:00,
2013-05-16 21:31:00,67.5,37.9,29.82,NNW,334,3.2,8.0,34,0.00,,,0.00,WUHU216DAVISVP2,2013-05-17 01:31:00,
2013-05-16 21:36:00,67.1,36.8,29.82,NW,321,4.0,8.0,33,0.00,,,0.00,WUHU216DAVISVP2,2013-05-17 01:36:00,
2013-05-16 21:41:00,66.8,38.1,29.82,NW,325,2.3,7.0,35,0.00,,,0.00,WUHU216DAVISVP2,2013-05-17 01:41:00,
2013-05-16 21:46:00,66.5,37.8,29.82,NW,314,1.0,7.0,35,0.00,,,0.00,WUHU216DAVISVP2,2013-05-17 01:46:00,
2013-05-16 21:51:00,66.0,37.4,29.83,NW,309,3.0,6.0,35,0.00,,,0.00,WUHU216DAVISVP2,2013-05-17 01:51:00,
2013-05-16 21:56:00,65.6,37.7,29.83,WNW,294,2.0,5.0,36,0.00,,,0.00,WUHU216DAVISVP2,2013-05-17 01:56:00,
2013-05-16 22:01:00,65.5,37.6,29.83,NW,323,2.6,6.0,36,0.00,,,0.00,WUHU216DAVISVP2,2013-05-17 02:01:00,
2013-05-16 22:06:00,65.2,38.1,29.83,WNW,299,3.0,6.0,37,0.00,,,0.00,WUHU216DAVISVP2,2013-05-17 02:06:00,
2013-05-16 22:11:00,64.8,37.7,29.83,NNE,12,2.0,6.0,37,0.00,,,0.00,WUHU216DAVISVP2,2013-05-17 02:11:00,
2013-05-16 22:16:00,64.3,38.0,29.83,NNW,329,1.3,6.0,38,0.00,,,0.00,WUHU216DAVISVP2,2013-05-17 02:16:00,
2013-05-16 22:21:00,64.1,38.6,29.83,WNW,299,1.1,6.0,39,0.00,,,0.00,WUHU216DAVISVP2,2013-05-17 02:21:00,
2013-05-16 22:26:00,63.5,38.1,29.83,WNW,294,2.0,6.0,39,0.00,,,0.00,WUHU216DAVISVP2,2013-05-17 02:26:00,
2013-05-16 22:32:00,63.3,37.9,29.83,WNW,290,5.0,6.0,39,0.00,,,0.00,WUHU216DAVISVP2,2013-05-17 02:32:00,
2013-05-16 22:37:00,63.6,38.2,29.83,NW,316,2.0,6.0,39,0.00,,,0.00,WUHU216DAVISVP2,2013-05-17 02:37:00,
2013-05-16 22:42:00,63.5,37.3,29.83,NW,312,3.0,6.0,38,0.00,,,0.00,WUHU216DAVISVP2,2013-05-17 02:42:00,
2013-05-16 22:47:00,63.4,37.2,29.83,NW,307,4.0,7.0,38,0.00,,,0.00,WUHU216DAVISVP2,2013-05-17 02:47:00,
2013-05-16 22:52:00,63.3,37.8,29.84,WNW,293,3.0,7.0,39,0.00,,,0.00,WUHU216DAVISVP2,2013-05-17 02:52:00,
2013-05-16 22:57:00,63.2,37.0,29.84,West,281,6.0,10.0,38,0.00,,,0.00,WUHU216DAVISVP2,2013-05-17 02:57:00,
2013-05-16 23:02:00,63.2,37.0,29.84,NW,312,5.4,13.0,38,0.00,,,0.00,WUHU216DAVISVP2,2013-05-17 03:02:00,
2013-05-16 23:07:00,63.4,37.2,29.83,WNW,296,3.7,13.0,38,0.00,,,0.00,WUHU216DAVISVP2,2013-05-17 03:07:00,
2013-05-16 23:12:00,63.3,37.1,29.83,NNW,340,7.0,13.0,38,0.00,,,0.00,WUHU216DAVISVP2,2013-05-17 03:12:00,
2013-05-16 23:17:00,63.2,37.0,29.84,NW,306,3.9,13.0,38,0.00,,,0.00,WUHU216DAVISVP2,2013-05-17 03:17:00,
2013-05-16 23:22:00,63.1,37.6,29.84,NNW,333,4.0,13.0,39,0.00,,,0.00,WUHU216DAVISVP2,2013-05-17 03:22:00,
2013-05-16 23:27:00,62.9,37.4,29.84,WNW,299,2.6,11.0,39,0.00,,,0.00,WUHU216DAVISVP2,2013-05-17 03:27:00,
2013-05-16 23:32:00,62.6,37.8,29.84,NW,309,4.0,11.0,40,0.00,,,0.00,WUHU216DAVISVP2,2013-05-17 03:32:00,
2013-05-16 23:37:00,62.5,38.5,29.85,NW,306,3.9,9.0,41,0.00,,,0.00,WUHU216DAVISVP2,2013-05-17 03:37:00,
2013-05-16 23:42:00,62.2,38.2,29.85,NW,304,4.0,9.0,41,0.00,,,0.00,WUHU216DAVISVP2,2013-05-17 03:42:00,
2013-05-16 23:47:00,62.1,38.7,29.85,NW,319,3.7,9.0,42,0.00,,,0.00,WUHU216DAVISVP2,2013-05-17 03:47:00,
2013-05-16 23:52:00,61.8,39.0,29.85,WNW,283,5.0,12.0,43,0.00,,,0.00,WUHU216DAVISVP2,2013-05-17 03:52:00,
2013-05-16 23:57:00,61.6,39.4,29.85,NW,317,3.7,12.0,44,0.00,,,0.00,WUHU216DAVISVP2,2013-05-17 03:57:00,